sensor_id;sensor_type;location;lat;lon;timestamp;P1;durP1;ratioP1;P2;durP2;ratioP2
41635;SDS011;27623;51.966;4.602;2022-09-09T00:03:51;5.68;;;2.85;;
41635;SDS011;27623;51.966;4.602;2022-09-09T00:06:23;7.72;;;3.40;;
41635;SDS011;27623;51.966;4.602;2022-09-09T00:09:38;7.90;;;3.47;;
41635;SDS011;27623;51.966;4.602;2022-09-09T00:11:45;6.82;;;3.58;;
41635;SDS011;27623;51.966;4.602;2022-09-09T00:17:21;5.88;;;3.28;;
41635;SDS011;27623;51.966;4.602;2022-09-09T00:20:21;7.70;;;4.07;;
41635;SDS011;27623;51.966;4.602;2022-09-09T00:22:58;5.70;;;3.42;;
41635;SDS011;27623;51.966;4.602;2022-09-09T00:28:10;9.27;;;3.92;;
41635;SDS011;27623;51.966;4.602;2022-09-09T00:30:42;7.57;;;3.70;;
41635;SDS011;27623;51.966;4.602;2022-09-09T00:33:12;8.07;;;3.47;;
41635;SDS011;27623;51.966;4.602;2022-09-09T00:35:56;7.82;;;3.60;;
41635;SDS011;27623;51.966;4.602;2022-09-09T00:38:33;7.25;;;3.60;;
41635;SDS011;27623;51.966;4.602;2022-09-09T00:41:46;8.07;;;4.05;;
41635;SDS011;27623;51.966;4.602;2022-09-09T00:44:20;8.55;;;4.10;;
41635;SDS011;27623;51.966;4.602;2022-09-09T00:47:06;6.70;;;4.18;;
41635;SDS011;27623;51.966;4.602;2022-09-09T00:52:47;10.02;;;4.10;;
41635;SDS011;27623;51.966;4.602;2022-09-09T00:55:34;12.02;;;4.60;;
41635;SDS011;27623;51.966;4.602;2022-09-09T00:58:13;9.35;;;4.20;;
41635;SDS011;27623;51.966;4.602;2022-09-09T01:00:46;8.27;;;4.22;;
41635;SDS011;27623;51.966;4.602;2022-09-09T01:03:37;7.00;;;3.92;;
41635;SDS011;27623;51.966;4.602;2022-09-09T01:06:15;7.75;;;4.03;;
41635;SDS011;27623;51.966;4.602;2022-09-09T01:08:56;9.15;;;4.10;;
41635;SDS011;27623;51.966;4.602;2022-09-09T01:11:26;7.28;;;3.60;;
41635;SDS011;27623;51.966;4.602;2022-09-09T01:16:38;5.90;;;3.65;;
41635;SDS011;27623;51.966;4.602;2022-09-09T01:19:07;8.57;;;3.67;;
41635;SDS011;27623;51.966;4.602;2022-09-09T01:21:45;8.70;;;4.05;;
41635;SDS011;27623;51.966;4.602;2022-09-09T01:24:31;7.45;;;3.33;;
41635;SDS011;27623;51.966;4.602;2022-09-09T01:27:05;6.82;;;3.65;;
41635;SDS011;27623;51.966;4.602;2022-09-09T01:29:32;9.98;;;3.42;;
41635;SDS011;27623;51.966;4.602;2022-09-09T01:32:02;7.40;;;2.92;;
41635;SDS011;27623;51.966;4.602;2022-09-09T01:34:48;7.28;;;3.65;;
41635;SDS011;27623;51.966;4.602;2022-09-09T01:37:16;6.63;;;3.75;;
41635;SDS011;27623;51.966;4.602;2022-09-09T01:39:42;9.93;;;3.50;;
41635;SDS011;27623;51.966;4.602;2022-09-09T01:42:10;12.15;;;3.00;;
41635;SDS011;27623;51.966;4.602;2022-09-09T01:44:38;7.95;;;3.38;;
41635;SDS011;27623;51.966;4.602;2022-09-09T01:47:04;4.10;;;2.90;;
41635;SDS011;27623;51.966;4.602;2022-09-09T01:49:30;6.68;;;2.63;;
41635;SDS011;27623;51.966;4.602;2022-09-09T01:51:57;6.20;;;2.90;;
41635;SDS011;27623;51.966;4.602;2022-09-09T01:54:26;8.10;;;2.95;;
41635;SDS011;27623;51.966;4.602;2022-09-09T01:59:59;9.18;;;3.58;;
41635;SDS011;27623;51.966;4.602;2022-09-09T02:07:49;6.32;;;2.70;;
41635;SDS011;27623;51.966;4.602;2022-09-09T02:10:19;6.57;;;2.95;;
41635;SDS011;27623;51.966;4.602;2022-09-09T02:13:15;8.38;;;3.05;;
41635;SDS011;27623;51.966;4.602;2022-09-09T02:18:34;5.68;;;2.97;;
41635;SDS011;27623;51.966;4.602;2022-09-09T02:21:15;7.00;;;3.45;;
41635;SDS011;27623;51.966;4.602;2022-09-09T02:23:42;6.50;;;2.70;;
41635;SDS011;27623;51.966;4.602;2022-09-09T02:26:10;7.25;;;3.20;;
41635;SDS011;27623;51.966;4.602;2022-09-09T02:28:39;9.32;;;3.50;;
41635;SDS011;27623;51.966;4.602;2022-09-09T02:31:07;9.93;;;3.33;;
41635;SDS011;27623;51.966;4.602;2022-09-09T02:33:34;6.30;;;3.50;;
41635;SDS011;27623;51.966;4.602;2022-09-09T02:36:03;8.90;;;3.60;;
41635;SDS011;27623;51.966;4.602;2022-09-09T02:38:33;8.30;;;3.22;;
41635;SDS011;27623;51.966;4.602;2022-09-09T02:41:06;8.15;;;3.05;;
41635;SDS011;27623;51.966;4.602;2022-09-09T02:43:32;10.02;;;4.35;;
41635;SDS011;27623;51.966;4.602;2022-09-09T02:48:31;4.82;;;2.83;;
41635;SDS011;27623;51.966;4.602;2022-09-09T02:51:13;7.20;;;3.40;;
41635;SDS011;27623;51.966;4.602;2022-09-09T02:56:29;5.40;;;2.90;;
41635;SDS011;27623;51.966;4.602;2022-09-09T02:58:58;8.85;;;3.15;;
41635;SDS011;27623;51.966;4.602;2022-09-09T03:01:24;6.93;;;3.08;;
41635;SDS011;27623;51.966;4.602;2022-09-09T03:03:49;7.53;;;3.10;;
41635;SDS011;27623;51.966;4.602;2022-09-09T03:06:15;9.18;;;3.60;;
41635;SDS011;27623;51.966;4.602;2022-09-09T03:08:41;9.52;;;3.00;;
41635;SDS011;27623;51.966;4.602;2022-09-09T03:11:07;12.20;;;2.95;;
41635;SDS011;27623;51.966;4.602;2022-09-09T03:13:39;8.10;;;3.20;;
41635;SDS011;27623;51.966;4.602;2022-09-09T03:16:04;6.60;;;3.00;;
41635;SDS011;27623;51.966;4.602;2022-09-09T03:18:32;5.38;;;2.42;;
41635;SDS011;27623;51.966;4.602;2022-09-09T03:20:59;6.30;;;2.38;;
41635;SDS011;27623;51.966;4.602;2022-09-09T03:23:25;7.85;;;2.80;;
41635;SDS011;27623;51.966;4.602;2022-09-09T03:25:50;9.80;;;2.80;;
41635;SDS011;27623;51.966;4.602;2022-09-09T03:28:16;7.78;;;2.88;;
41635;SDS011;27623;51.966;4.602;2022-09-09T03:30:42;6.95;;;2.50;;
41635;SDS011;27623;51.966;4.602;2022-09-09T03:33:08;8.82;;;3.30;;
41635;SDS011;27623;51.966;4.602;2022-09-09T03:35:33;6.63;;;2.33;;
41635;SDS011;27623;51.966;4.602;2022-09-09T03:37:59;6.95;;;3.00;;
41635;SDS011;27623;51.966;4.602;2022-09-09T03:40:25;7.55;;;2.22;;
41635;SDS011;27623;51.966;4.602;2022-09-09T03:42:51;6.30;;;2.22;;
41635;SDS011;27623;51.966;4.602;2022-09-09T03:45:16;4.95;;;2.47;;
41635;SDS011;27623;51.966;4.602;2022-09-09T03:47:42;11.00;;;2.25;;
41635;SDS011;27623;51.966;4.602;2022-09-09T03:50:08;6.03;;;2.05;;
41635;SDS011;27623;51.966;4.602;2022-09-09T03:52:35;5.05;;;2.15;;
41635;SDS011;27623;51.966;4.602;2022-09-09T03:55:05;5.30;;;1.90;;
41635;SDS011;27623;51.966;4.602;2022-09-09T03:57:32;6.93;;;2.42;;
41635;SDS011;27623;51.966;4.602;2022-09-09T04:00:04;5.75;;;1.90;;
41635;SDS011;27623;51.966;4.602;2022-09-09T04:02:31;4.35;;;1.90;;
41635;SDS011;27623;51.966;4.602;2022-09-09T04:04:56;6.50;;;1.90;;
41635;SDS011;27623;51.966;4.602;2022-09-09T04:07:22;4.45;;;1.83;;
41635;SDS011;27623;51.966;4.602;2022-09-09T04:09:47;5.45;;;2.17;;
41635;SDS011;27623;51.966;4.602;2022-09-09T04:12:13;9.68;;;2.72;;
41635;SDS011;27623;51.966;4.602;2022-09-09T04:14:38;8.60;;;1.90;;
41635;SDS011;27623;51.966;4.602;2022-09-09T04:17:04;4.72;;;1.80;;
41635;SDS011;27623;51.966;4.602;2022-09-09T04:19:31;7.68;;;1.77;;
41635;SDS011;27623;51.966;4.602;2022-09-09T04:21:59;10.52;;;2.08;;
41635;SDS011;27623;51.966;4.602;2022-09-09T04:24:24;6.45;;;2.10;;
41635;SDS011;27623;51.966;4.602;2022-09-09T04:26:54;7.68;;;2.53;;
41635;SDS011;27623;51.966;4.602;2022-09-09T04:29:19;3.58;;;2.10;;
41635;SDS011;27623;51.966;4.602;2022-09-09T04:31:44;5.18;;;1.75;;
41635;SDS011;27623;51.966;4.602;2022-09-09T04:34:10;8.20;;;2.22;;
41635;SDS011;27623;51.966;4.602;2022-09-09T04:36:35;7.90;;;1.77;;
41635;SDS011;27623;51.966;4.602;2022-09-09T04:39:01;8.65;;;2.00;;
41635;SDS011;27623;51.966;4.602;2022-09-09T04:41:27;4.28;;;2.10;;
41635;SDS011;27623;51.966;4.602;2022-09-09T04:43:53;3.22;;;1.83;;
41635;SDS011;27623;51.966;4.602;2022-09-09T04:46:19;5.72;;;2.25;;
41635;SDS011;27623;51.966;4.602;2022-09-09T04:48:45;5.55;;;2.05;;
41635;SDS011;27623;51.966;4.602;2022-09-09T04:51:12;6.65;;;2.30;;
41635;SDS011;27623;51.966;4.602;2022-09-09T04:53:38;6.30;;;1.65;;
41635;SDS011;27623;51.966;4.602;2022-09-09T04:56:12;6.90;;;2.17;;
41635;SDS011;27623;51.966;4.602;2022-09-09T04:58:41;9.88;;;2.38;;
41635;SDS011;27623;51.966;4.602;2022-09-09T05:01:12;7.43;;;2.78;;
41635;SDS011;27623;51.966;4.602;2022-09-09T05:06:10;7.40;;;2.03;;
41635;SDS011;27623;51.966;4.602;2022-09-09T05:08:37;6.97;;;2.13;;
41635;SDS011;27623;51.966;4.602;2022-09-09T05:11:11;5.32;;;2.22;;
41635;SDS011;27623;51.966;4.602;2022-09-09T05:13:43;7.32;;;2.20;;
41635;SDS011;27623;51.966;4.602;2022-09-09T05:16:09;8.38;;;2.17;;
41635;SDS011;27623;51.966;4.602;2022-09-09T05:18:36;10.63;;;2.72;;
41635;SDS011;27623;51.966;4.602;2022-09-09T05:21:03;10.18;;;2.45;;
41635;SDS011;27623;51.966;4.602;2022-09-09T05:23:28;8.82;;;2.63;;
41635;SDS011;27623;51.966;4.602;2022-09-09T05:25:57;11.95;;;2.05;;
41635;SDS011;27623;51.966;4.602;2022-09-09T05:28:24;10.43;;;2.40;;
41635;SDS011;27623;51.966;4.602;2022-09-09T05:33:29;9.45;;;2.47;;
41635;SDS011;27623;51.966;4.602;2022-09-09T05:36:04;7.00;;;2.28;;
41635;SDS011;27623;51.966;4.602;2022-09-09T05:38:33;11.05;;;2.53;;
41635;SDS011;27623;51.966;4.602;2022-09-09T05:40:59;6.53;;;2.10;;
41635;SDS011;27623;51.966;4.602;2022-09-09T05:43:25;8.25;;;2.05;;
41635;SDS011;27623;51.966;4.602;2022-09-09T05:46:04;6.32;;;2.42;;
41635;SDS011;27623;51.966;4.602;2022-09-09T05:48:33;8.13;;;2.35;;
41635;SDS011;27623;51.966;4.602;2022-09-09T05:51:00;12.60;;;2.38;;
41635;SDS011;27623;51.966;4.602;2022-09-09T05:53:27;7.85;;;2.72;;
41635;SDS011;27623;51.966;4.602;2022-09-09T05:56:00;9.05;;;2.25;;
41635;SDS011;27623;51.966;4.602;2022-09-09T05:58:32;11.05;;;2.08;;
41635;SDS011;27623;51.966;4.602;2022-09-09T06:01:05;7.10;;;1.88;;
41635;SDS011;27623;51.966;4.602;2022-09-09T06:03:34;8.48;;;2.17;;
41635;SDS011;27623;51.966;4.602;2022-09-09T06:06:00;10.88;;;1.85;;
41635;SDS011;27623;51.966;4.602;2022-09-09T06:08:30;10.52;;;1.95;;
41635;SDS011;27623;51.966;4.602;2022-09-09T06:11:09;8.18;;;2.03;;
41635;SDS011;27623;51.966;4.602;2022-09-09T06:13:37;10.20;;;2.03;;
41635;SDS011;27623;51.966;4.602;2022-09-09T06:16:05;10.02;;;2.20;;
41635;SDS011;27623;51.966;4.602;2022-09-09T06:18:33;12.25;;;1.90;;
41635;SDS011;27623;51.966;4.602;2022-09-09T06:20:59;7.95;;;1.90;;
41635;SDS011;27623;51.966;4.602;2022-09-09T06:23:26;9.43;;;2.38;;
41635;SDS011;27623;51.966;4.602;2022-09-09T06:26:03;9.98;;;2.22;;
41635;SDS011;27623;51.966;4.602;2022-09-09T06:28:35;10.38;;;2.10;;
41635;SDS011;27623;51.966;4.602;2022-09-09T06:31:02;9.60;;;2.05;;
41635;SDS011;27623;51.966;4.602;2022-09-09T06:33:36;7.65;;;2.25;;
41635;SDS011;27623;51.966;4.602;2022-09-09T06:36:06;8.77;;;2.00;;
41635;SDS011;27623;51.966;4.602;2022-09-09T06:38:35;7.18;;;1.85;;
41635;SDS011;27623;51.966;4.602;2022-09-09T06:41:01;8.77;;;2.42;;
41635;SDS011;27623;51.966;4.602;2022-09-09T06:43:26;16.80;;;3.20;;
41635;SDS011;27623;51.966;4.602;2022-09-09T06:46:00;5.43;;;2.20;;
41635;SDS011;27623;51.966;4.602;2022-09-09T06:48:44;11.15;;;3.15;;
41635;SDS011;27623;51.966;4.602;2022-09-09T06:53:38;11.02;;;2.42;;
41635;SDS011;27623;51.966;4.602;2022-09-09T06:58:36;7.93;;;2.85;;
41635;SDS011;27623;51.966;4.602;2022-09-09T07:01:03;7.50;;;2.25;;
41635;SDS011;27623;51.966;4.602;2022-09-09T07:03:31;18.15;;;3.15;;
41635;SDS011;27623;51.966;4.602;2022-09-09T07:05:57;15.45;;;3.08;;
41635;SDS011;27623;51.966;4.602;2022-09-09T07:08:23;9.55;;;2.83;;
41635;SDS011;27623;51.966;4.602;2022-09-09T07:10:49;13.65;;;2.60;;
41635;SDS011;27623;51.966;4.602;2022-09-09T07:13:18;9.68;;;3.50;;
41635;SDS011;27623;51.966;4.602;2022-09-09T07:15:51;9.77;;;3.75;;
41635;SDS011;27623;51.966;4.602;2022-09-09T07:18:17;13.95;;;2.97;;
41635;SDS011;27623;51.966;4.602;2022-09-09T07:20:43;10.70;;;2.97;;
41635;SDS011;27623;51.966;4.602;2022-09-09T07:23:17;12.25;;;3.00;;
41635;SDS011;27623;51.966;4.602;2022-09-09T07:25:45;11.50;;;3.17;;
41635;SDS011;27623;51.966;4.602;2022-09-09T07:28:12;12.38;;;2.83;;
41635;SDS011;27623;51.966;4.602;2022-09-09T07:30:38;14.20;;;3.75;;
41635;SDS011;27623;51.966;4.602;2022-09-09T07:33:05;10.45;;;3.03;;
41635;SDS011;27623;51.966;4.602;2022-09-09T07:35:30;8.68;;;3.33;;
41635;SDS011;27623;51.966;4.602;2022-09-09T07:37:56;7.38;;;3.88;;
41635;SDS011;27623;51.966;4.602;2022-09-09T07:40:22;10.02;;;3.90;;
41635;SDS011;27623;51.966;4.602;2022-09-09T07:42:48;8.45;;;3.72;;
41635;SDS011;27623;51.966;4.602;2022-09-09T07:45:13;12.95;;;3.53;;
41635;SDS011;27623;51.966;4.602;2022-09-09T07:47:39;11.25;;;3.67;;
41635;SDS011;27623;51.966;4.602;2022-09-09T07:50:07;9.23;;;3.47;;
41635;SDS011;27623;51.966;4.602;2022-09-09T07:52:34;7.97;;;3.50;;
41635;SDS011;27623;51.966;4.602;2022-09-09T07:55:00;11.10;;;3.35;;
41635;SDS011;27623;51.966;4.602;2022-09-09T07:57:27;14.25;;;3.03;;
41635;SDS011;27623;51.966;4.602;2022-09-09T07:59:55;8.77;;;3.60;;
41635;SDS011;27623;51.966;4.602;2022-09-09T08:02:22;12.32;;;3.63;;
41635;SDS011;27623;51.966;4.602;2022-09-09T08:04:49;11.88;;;3.38;;
41635;SDS011;27623;51.966;4.602;2022-09-09T08:07:14;12.52;;;4.03;;
41635;SDS011;27623;51.966;4.602;2022-09-09T08:09:41;11.52;;;3.53;;
41635;SDS011;27623;51.966;4.602;2022-09-09T08:12:09;11.10;;;3.85;;
41635;SDS011;27623;51.966;4.602;2022-09-09T08:14:35;10.55;;;3.22;;
41635;SDS011;27623;51.966;4.602;2022-09-09T08:17:01;10.15;;;3.28;;
41635;SDS011;27623;51.966;4.602;2022-09-09T08:19:27;12.68;;;4.30;;
41635;SDS011;27623;51.966;4.602;2022-09-09T08:21:54;9.52;;;3.17;;
41635;SDS011;27623;51.966;4.602;2022-09-09T08:24:20;10.02;;;3.17;;
41635;SDS011;27623;51.966;4.602;2022-09-09T08:26:50;8.52;;;2.83;;
41635;SDS011;27623;51.966;4.602;2022-09-09T08:29:15;7.75;;;3.75;;
41635;SDS011;27623;51.966;4.602;2022-09-09T08:34:12;8.60;;;3.40;;
41635;SDS011;27623;51.966;4.602;2022-09-09T08:36:38;13.40;;;3.58;;
41635;SDS011;27623;51.966;4.602;2022-09-09T08:39:07;11.23;;;4.45;;
41635;SDS011;27623;51.966;4.602;2022-09-09T08:52:37;9.38;;;2.80;;
41635;SDS011;27623;51.966;4.602;2022-09-09T08:58:17;10.82;;;3.40;;
41635;SDS011;27623;51.966;4.602;2022-09-09T09:03:36;9.98;;;2.88;;
41635;SDS011;27623;51.966;4.602;2022-09-09T09:06:32;9.98;;;2.85;;
41635;SDS011;27623;51.966;4.602;2022-09-09T09:11:39;11.05;;;3.63;;
41635;SDS011;27623;51.966;4.602;2022-09-09T09:14:10;9.88;;;3.45;;
41635;SDS011;27623;51.966;4.602;2022-09-09T09:19:18;9.65;;;3.33;;
41635;SDS011;27623;51.966;4.602;2022-09-09T09:22:34;11.02;;;3.60;;
41635;SDS011;27623;51.966;4.602;2022-09-09T09:25:00;13.02;;;4.00;;
41635;SDS011;27623;51.966;4.602;2022-09-09T09:30:26;13.93;;;4.55;;
41635;SDS011;27623;51.966;4.602;2022-09-09T09:35:30;18.15;;;4.10;;
41635;SDS011;27623;51.966;4.602;2022-09-09T09:37:56;17.17;;;3.67;;
41635;SDS011;27623;51.966;4.602;2022-09-09T09:40:21;9.13;;;3.10;;
41635;SDS011;27623;51.966;4.602;2022-09-09T09:42:52;9.88;;;3.30;;
41635;SDS011;27623;51.966;4.602;2022-09-09T09:45:31;9.25;;;3.00;;
41635;SDS011;27623;51.966;4.602;2022-09-09T09:48:03;12.05;;;3.80;;
41635;SDS011;27623;51.966;4.602;2022-09-09T09:50:31;8.60;;;3.45;;
41635;SDS011;27623;51.966;4.602;2022-09-09T09:52:58;10.70;;;3.05;;
41635;SDS011;27623;51.966;4.602;2022-09-09T09:55:27;9.10;;;3.03;;
41635;SDS011;27623;51.966;4.602;2022-09-09T09:57:59;7.05;;;2.47;;
41635;SDS011;27623;51.966;4.602;2022-09-09T10:00:30;14.77;;;3.05;;
41635;SDS011;27623;51.966;4.602;2022-09-09T10:02:56;9.18;;;2.40;;
41635;SDS011;27623;51.966;4.602;2022-09-09T10:05:22;10.05;;;2.30;;
41635;SDS011;27623;51.966;4.602;2022-09-09T10:08:05;9.20;;;3.58;;
41635;SDS011;27623;51.966;4.602;2022-09-09T10:11:00;8.15;;;2.58;;
41635;SDS011;27623;51.966;4.602;2022-09-09T10:16:06;7.82;;;2.83;;
41635;SDS011;27623;51.966;4.602;2022-09-09T10:21:29;9.85;;;2.67;;
41635;SDS011;27623;51.966;4.602;2022-09-09T10:26:53;8.63;;;2.67;;
41635;SDS011;27623;51.966;4.602;2022-09-09T10:51:25;5.85;;;2.35;;
41635;SDS011;27623;51.966;4.602;2022-09-09T10:57:06;10.93;;;3.13;;
41635;SDS011;27623;51.966;4.602;2022-09-09T10:59:40;7.43;;;2.88;;
41635;SDS011;27623;51.966;4.602;2022-09-09T11:02:13;7.97;;;3.45;;
41635;SDS011;27623;51.966;4.602;2022-09-09T11:04:47;8.45;;;2.75;;
41635;SDS011;27623;51.966;4.602;2022-09-09T11:07:24;9.73;;;3.25;;
41635;SDS011;27623;51.966;4.602;2022-09-09T11:09:58;8.77;;;2.80;;
41635;SDS011;27623;51.966;4.602;2022-09-09T11:12:27;5.85;;;2.67;;
41635;SDS011;27623;51.966;4.602;2022-09-09T11:14:58;6.68;;;2.47;;
41635;SDS011;27623;51.966;4.602;2022-09-09T11:17:41;8.70;;;2.70;;
41635;SDS011;27623;51.966;4.602;2022-09-09T11:20:12;4.30;;;2.42;;
41635;SDS011;27623;51.966;4.602;2022-09-09T11:22:48;5.38;;;2.38;;
41635;SDS011;27623;51.966;4.602;2022-09-09T11:33:36;4.28;;;2.00;;
41635;SDS011;27623;51.966;4.602;2022-09-09T11:44:39;7.10;;;2.45;;
41635;SDS011;27623;51.966;4.602;2022-09-09T11:47:23;8.73;;;2.10;;
41635;SDS011;27623;51.966;4.602;2022-09-09T11:49:54;5.68;;;2.80;;
41635;SDS011;27623;51.966;4.602;2022-09-09T11:52:39;10.60;;;3.15;;
41635;SDS011;27623;51.966;4.602;2022-09-09T11:58:00;7.28;;;3.25;;
41635;SDS011;27623;51.966;4.602;2022-09-09T12:00:47;8.10;;;2.67;;
41635;SDS011;27623;51.966;4.602;2022-09-09T12:06:20;11.48;;;3.03;;
41635;SDS011;27623;51.966;4.602;2022-09-09T12:09:06;7.88;;;3.38;;
41635;SDS011;27623;51.966;4.602;2022-09-09T12:11:36;6.22;;;3.47;;
41635;SDS011;27623;51.966;4.602;2022-09-09T12:14:02;8.35;;;3.08;;
41635;SDS011;27623;51.966;4.602;2022-09-09T12:16:28;7.88;;;3.13;;
41635;SDS011;27623;51.966;4.602;2022-09-09T12:19:14;10.80;;;3.50;;
41635;SDS011;27623;51.966;4.602;2022-09-09T12:21:54;12.57;;;3.75;;
41635;SDS011;27623;51.966;4.602;2022-09-09T12:24:30;9.18;;;2.92;;
41635;SDS011;27623;51.966;4.602;2022-09-09T12:27:17;7.93;;;3.00;;
41635;SDS011;27623;51.966;4.602;2022-09-09T12:29:54;8.00;;;3.43;;
41635;SDS011;27623;51.966;4.602;2022-09-09T12:32:27;11.35;;;3.35;;
41635;SDS011;27623;51.966;4.602;2022-09-09T12:37:33;9.40;;;3.70;;
41635;SDS011;27623;51.966;4.602;2022-09-09T12:40:03;10.30;;;3.33;;
41635;SDS011;27623;51.966;4.602;2022-09-09T12:42:29;5.15;;;2.70;;
41635;SDS011;27623;51.966;4.602;2022-09-09T12:45:02;6.68;;;2.53;;
41635;SDS011;27623;51.966;4.602;2022-09-09T12:47:34;5.88;;;2.40;;
41635;SDS011;27623;51.966;4.602;2022-09-09T12:50:15;8.70;;;2.75;;
41635;SDS011;27623;51.966;4.602;2022-09-09T12:52:42;8.68;;;2.70;;
41635;SDS011;27623;51.966;4.602;2022-09-09T12:55:15;8.55;;;3.08;;
41635;SDS011;27623;51.966;4.602;2022-09-09T12:57:42;8.15;;;3.10;;
41635;SDS011;27623;51.966;4.602;2022-09-09T13:00:16;9.18;;;3.25;;
41635;SDS011;27623;51.966;4.602;2022-09-09T13:03:14;7.73;;;2.73;;
41635;SDS011;27623;51.966;4.602;2022-09-09T13:05:42;8.15;;;3.75;;
41635;SDS011;27623;51.966;4.602;2022-09-09T13:08:09;5.25;;;2.92;;
41635;SDS011;27623;51.966;4.602;2022-09-09T13:10:58;9.60;;;2.75;;
41635;SDS011;27623;51.966;4.602;2022-09-09T13:13:28;6.20;;;2.55;;
41635;SDS011;27623;51.966;4.602;2022-09-09T13:15:58;6.97;;;2.50;;
41635;SDS011;27623;51.966;4.602;2022-09-09T13:18:29;8.57;;;2.22;;
41635;SDS011;27623;51.966;4.602;2022-09-09T13:21:04;3.13;;;1.50;;
41635;SDS011;27623;51.966;4.602;2022-09-09T13:23:33;4.45;;;1.42;;
41635;SDS011;27623;51.966;4.602;2022-09-09T13:26:02;4.68;;;1.70;;
41635;SDS011;27623;51.966;4.602;2022-09-09T13:28:43;6.53;;;1.75;;
41635;SDS011;27623;51.966;4.602;2022-09-09T13:33:55;4.85;;;1.70;;
41635;SDS011;27623;51.966;4.602;2022-09-09T13:36:31;6.80;;;2.08;;
41635;SDS011;27623;51.966;4.602;2022-09-09T13:38:59;3.65;;;1.70;;
41635;SDS011;27623;51.966;4.602;2022-09-09T13:44:00;5.50;;;1.70;;
41635;SDS011;27623;51.966;4.602;2022-09-09T13:46:37;5.05;;;1.60;;
41635;SDS011;27623;51.966;4.602;2022-09-09T13:54:02;4.47;;;1.65;;
41635;SDS011;27623;51.966;4.602;2022-09-09T13:56:31;5.63;;;1.70;;
41635;SDS011;27623;51.966;4.602;2022-09-09T13:59:00;4.93;;;1.10;;
41635;SDS011;27623;51.966;4.602;2022-09-09T14:01:25;4.15;;;1.10;;
41635;SDS011;27623;51.966;4.602;2022-09-09T14:03:52;7.90;;;2.03;;
41635;SDS011;27623;51.966;4.602;2022-09-09T14:06:18;6.07;;;1.52;;
41635;SDS011;27623;51.966;4.602;2022-09-09T14:08:43;5.53;;;2.13;;
41635;SDS011;27623;51.966;4.602;2022-09-09T14:11:10;7.90;;;1.60;;
41635;SDS011;27623;51.966;4.602;2022-09-09T14:13:37;4.90;;;1.52;;
41635;SDS011;27623;51.966;4.602;2022-09-09T14:16:03;7.22;;;1.92;;
41635;SDS011;27623;51.966;4.602;2022-09-09T14:18:28;3.15;;;1.70;;
41635;SDS011;27623;51.966;4.602;2022-09-09T14:20:54;7.30;;;1.40;;
41635;SDS011;27623;51.966;4.602;2022-09-09T14:23:19;6.45;;;1.52;;
41635;SDS011;27623;51.966;4.602;2022-09-09T14:25:47;7.32;;;1.67;;
41635;SDS011;27623;51.966;4.602;2022-09-09T14:28:14;6.55;;;1.75;;
41635;SDS011;27623;51.966;4.602;2022-09-09T14:30:40;3.67;;;1.67;;
41635;SDS011;27623;51.966;4.602;2022-09-09T14:33:07;4.10;;;1.63;;
41635;SDS011;27623;51.966;4.602;2022-09-09T14:35:34;4.55;;;2.15;;
41635;SDS011;27623;51.966;4.602;2022-09-09T14:38:01;6.38;;;2.25;;
41635;SDS011;27623;51.966;4.602;2022-09-09T14:40:27;7.60;;;1.90;;
41635;SDS011;27623;51.966;4.602;2022-09-09T14:42:53;7.82;;;1.90;;
41635;SDS011;27623;51.966;4.602;2022-09-09T14:45:19;9.65;;;1.70;;
41635;SDS011;27623;51.966;4.602;2022-09-09T14:47:46;4.15;;;1.75;;
41635;SDS011;27623;51.966;4.602;2022-09-09T14:50:11;6.20;;;1.63;;
41635;SDS011;27623;51.966;4.602;2022-09-09T14:52:37;4.30;;;1.60;;
41635;SDS011;27623;51.966;4.602;2022-09-09T14:55:03;2.90;;;0.93;;
41635;SDS011;27623;51.966;4.602;2022-09-09T14:57:29;4.43;;;1.35;;
41635;SDS011;27623;51.966;4.602;2022-09-09T14:59:55;6.30;;;1.10;;
41635;SDS011;27623;51.966;4.602;2022-09-09T15:02:21;5.07;;;1.33;;
41635;SDS011;27623;51.966;4.602;2022-09-09T15:04:46;3.40;;;0.98;;
41635;SDS011;27623;51.966;4.602;2022-09-09T15:07:11;7.80;;;1.27;;
41635;SDS011;27623;51.966;4.602;2022-09-09T15:09:37;7.25;;;1.38;;
41635;SDS011;27623;51.966;4.602;2022-09-09T15:12:02;7.53;;;1.63;;
41635;SDS011;27623;51.966;4.602;2022-09-09T15:14:29;5.95;;;1.40;;
41635;SDS011;27623;51.966;4.602;2022-09-09T15:16:55;3.67;;;1.15;;
41635;SDS011;27623;51.966;4.602;2022-09-09T15:19:21;4.45;;;1.05;;
41635;SDS011;27623;51.966;4.602;2022-09-09T15:21:48;6.40;;;0.95;;
41635;SDS011;27623;51.966;4.602;2022-09-09T15:24:14;2.33;;;1.17;;
41635;SDS011;27623;51.966;4.602;2022-09-09T15:26:41;3.83;;;0.95;;
41635;SDS011;27623;51.966;4.602;2022-09-09T15:29:06;5.53;;;1.10;;
41635;SDS011;27623;51.966;4.602;2022-09-09T15:31:33;7.50;;;1.35;;
41635;SDS011;27623;51.966;4.602;2022-09-09T15:34:00;5.20;;;1.35;;
41635;SDS011;27623;51.966;4.602;2022-09-09T15:36:28;5.88;;;1.20;;
41635;SDS011;27623;51.966;4.602;2022-09-09T15:38:55;4.35;;;1.30;;
41635;SDS011;27623;51.966;4.602;2022-09-09T15:41:21;5.13;;;1.40;;
41635;SDS011;27623;51.966;4.602;2022-09-09T15:43:51;5.82;;;2.05;;
41635;SDS011;27623;51.966;4.602;2022-09-09T15:46:22;8.27;;;2.67;;
41635;SDS011;27623;51.966;4.602;2022-09-09T15:48:58;6.18;;;2.28;;
41635;SDS011;27623;51.966;4.602;2022-09-09T15:51:35;10.10;;;2.33;;
41635;SDS011;27623;51.966;4.602;2022-09-09T15:54:02;8.68;;;2.22;;
41635;SDS011;27623;51.966;4.602;2022-09-09T15:56:28;10.38;;;3.00;;
41635;SDS011;27623;51.966;4.602;2022-09-09T15:58:57;8.07;;;2.28;;
41635;SDS011;27623;51.966;4.602;2022-09-09T16:01:24;9.02;;;2.78;;
41635;SDS011;27623;51.966;4.602;2022-09-09T16:03:51;10.25;;;2.58;;
41635;SDS011;27623;51.966;4.602;2022-09-09T16:06:19;8.93;;;2.75;;
41635;SDS011;27623;51.966;4.602;2022-09-09T16:08:46;8.25;;;2.92;;
41635;SDS011;27623;51.966;4.602;2022-09-09T16:11:18;7.70;;;3.20;;
41635;SDS011;27623;51.966;4.602;2022-09-09T16:13:45;8.93;;;3.30;;
41635;SDS011;27623;51.966;4.602;2022-09-09T16:16:14;6.95;;;2.80;;
41635;SDS011;27623;51.966;4.602;2022-09-09T16:18:41;9.85;;;2.70;;
41635;SDS011;27623;51.966;4.602;2022-09-09T16:21:13;7.07;;;2.63;;
41635;SDS011;27623;51.966;4.602;2022-09-09T16:23:46;5.75;;;2.85;;
41635;SDS011;27623;51.966;4.602;2022-09-09T16:26:12;10.00;;;2.78;;
41635;SDS011;27623;51.966;4.602;2022-09-09T16:28:40;9.43;;;2.72;;
41635;SDS011;27623;51.966;4.602;2022-09-09T16:31:06;9.05;;;2.80;;
41635;SDS011;27623;51.966;4.602;2022-09-09T16:33:37;6.78;;;2.90;;
41635;SDS011;27623;51.966;4.602;2022-09-09T16:36:06;5.47;;;3.03;;
41635;SDS011;27623;51.966;4.602;2022-09-09T16:38:32;5.95;;;2.72;;
41635;SDS011;27623;51.966;4.602;2022-09-09T16:40:59;8.60;;;2.80;;
41635;SDS011;27623;51.966;4.602;2022-09-09T16:43:25;7.07;;;2.83;;
41635;SDS011;27623;51.966;4.602;2022-09-09T16:45:50;9.00;;;3.58;;
41635;SDS011;27623;51.966;4.602;2022-09-09T16:48:16;7.68;;;2.80;;
41635;SDS011;27623;51.966;4.602;2022-09-09T16:50:41;7.03;;;2.72;;
41635;SDS011;27623;51.966;4.602;2022-09-09T16:53:07;7.15;;;2.70;;
41635;SDS011;27623;51.966;4.602;2022-09-09T16:55:37;5.38;;;2.78;;
41635;SDS011;27623;51.966;4.602;2022-09-09T16:58:07;6.55;;;2.90;;
41635;SDS011;27623;51.966;4.602;2022-09-09T17:00:33;7.07;;;3.10;;
41635;SDS011;27623;51.966;4.602;2022-09-09T17:02:59;5.35;;;3.22;;
41635;SDS011;27623;51.966;4.602;2022-09-09T17:05:25;7.80;;;3.00;;
41635;SDS011;27623;51.966;4.602;2022-09-09T17:07:50;7.95;;;3.00;;
41635;SDS011;27623;51.966;4.602;2022-09-09T17:10:16;7.40;;;3.30;;
41635;SDS011;27623;51.966;4.602;2022-09-09T17:12:41;6.20;;;2.92;;
41635;SDS011;27623;51.966;4.602;2022-09-09T17:15:07;5.82;;;3.03;;
41635;SDS011;27623;51.966;4.602;2022-09-09T17:17:33;5.93;;;3.30;;
41635;SDS011;27623;51.966;4.602;2022-09-09T17:20:00;7.40;;;2.90;;
41635;SDS011;27623;51.966;4.602;2022-09-09T17:22:26;12.18;;;2.90;;